sensor_id;sensor_type;location;lat;lon;timestamp;P1;durP1;ratioP1;P2;durP2;ratioP2
33840;SDS011;20142;28.494;-16.312;2022-08-21T00:01:52;14.68;;;3.38;;
33840;SDS011;20142;28.494;-16.312;2022-08-21T00:06:54;14.18;;;3.10;;
33840;SDS011;20142;28.494;-16.312;2022-08-21T00:11:56;10.25;;;2.75;;
33840;SDS011;20142;28.494;-16.312;2022-08-21T00:16:58;15.82;;;3.20;;
33840;SDS011;20142;28.494;-16.312;2022-08-21T00:22:00;9.05;;;2.85;;
33840;SDS011;20142;28.494;-16.312;2022-08-21T00:27:02;11.88;;;3.22;;
33840;SDS011;20142;28.494;-16.312;2022-08-21T00:32:04;13.07;;;2.53;;
33840;SDS011;20142;28.494;-16.312;2022-08-21T00:37:06;10.93;;;2.70;;
33840;SDS011;20142;28.494;-16.312;2022-08-21T00:42:09;9.07;;;2.55;;
33840;SDS011;20142;28.494;-16.312;2022-08-21T00:47:15;12.52;;;2.88;;
33840;SDS011;20142;28.494;-16.312;2022-08-21T00:52:22;13.40;;;2.58;;
33840;SDS011;20142;28.494;-16.312;2022-08-21T00:57:27;7.93;;;2.60;;
33840;SDS011;20142;28.494;-16.312;2022-08-21T01:02:31;12.20;;;2.67;;
33840;SDS011;20142;28.494;-16.312;2022-08-21T01:07:33;8.50;;;2.58;;
33840;SDS011;20142;28.494;-16.312;2022-08-21T01:12:35;9.68;;;2.40;;
33840;SDS011;20142;28.494;-16.312;2022-08-21T01:17:37;6.18;;;2.00;;
33840;SDS011;20142;28.494;-16.312;2022-08-21T01:22:39;9.82;;;2.35;;
33840;SDS011;20142;28.494;-16.312;2022-08-21T01:27:42;10.40;;;2.60;;
33840;SDS011;20142;28.494;-16.312;2022-08-21T01:32:44;12.70;;;2.47;;
33840;SDS011;20142;28.494;-16.312;2022-08-21T01:37:47;7.35;;;2.38;;
33840;SDS011;20142;28.494;-16.312;2022-08-21T01:42:49;8.68;;;2.25;;
33840;SDS011;20142;28.494;-16.312;2022-08-21T01:47:51;9.00;;;2.28;;
33840;SDS011;20142;28.494;-16.312;2022-08-21T01:52:53;6.85;;;2.38;;
33840;SDS011;20142;28.494;-16.312;2022-08-21T01:57:56;11.43;;;2.22;;
33840;SDS011;20142;28.494;-16.312;2022-08-21T02:02:59;7.03;;;2.10;;
33840;SDS011;20142;28.494;-16.312;2022-08-21T02:08:01;6.03;;;1.80;;
33840;SDS011;20142;28.494;-16.312;2022-08-21T02:13:03;6.75;;;1.70;;
33840;SDS011;20142;28.494;-16.312;2022-08-21T02:18:05;5.78;;;1.83;;
33840;SDS011;20142;28.494;-16.312;2022-08-21T02:23:08;6.55;;;1.98;;
33840;SDS011;20142;28.494;-16.312;2022-08-21T02:28:12;8.35;;;2.10;;
33840;SDS011;20142;28.494;-16.312;2022-08-21T02:33:14;5.90;;;1.90;;
33840;SDS011;20142;28.494;-16.312;2022-08-21T02:38:19;5.22;;;1.70;;
33840;SDS011;20142;28.494;-16.312;2022-08-21T02:43:23;5.70;;;1.83;;
33840;SDS011;20142;28.494;-16.312;2022-08-21T02:48:27;5.63;;;1.67;;
33840;SDS011;20142;28.494;-16.312;2022-08-21T02:53:30;5.65;;;1.83;;
33840;SDS011;20142;28.494;-16.312;2022-08-21T02:58:34;8.05;;;1.80;;
33840;SDS011;20142;28.494;-16.312;2022-08-21T03:03:39;6.00;;;1.60;;
33840;SDS011;20142;28.494;-16.312;2022-08-21T03:08:42;5.07;;;1.63;;
33840;SDS011;20142;28.494;-16.312;2022-08-21T03:13:45;3.38;;;1.52;;
33840;SDS011;20142;28.494;-16.312;2022-08-21T03:18:47;6.43;;;1.60;;
33840;SDS011;20142;28.494;-16.312;2022-08-21T03:23:49;5.45;;;1.45;;
33840;SDS011;20142;28.494;-16.312;2022-08-21T03:28:51;5.13;;;1.55;;
33840;SDS011;20142;28.494;-16.312;2022-08-21T03:33:53;7.13;;;1.33;;
33840;SDS011;20142;28.494;-16.312;2022-08-21T03:38:56;2.95;;;1.27;;
33840;SDS011;20142;28.494;-16.312;2022-08-21T03:43:58;2.17;;;1.15;;
33840;SDS011;20142;28.494;-16.312;2022-08-21T03:49:00;5.13;;;1.60;;
33840;SDS011;20142;28.494;-16.312;2022-08-21T03:54:03;4.13;;;1.50;;
33840;SDS011;20142;28.494;-16.312;2022-08-21T03:59:05;5.18;;;1.63;;
33840;SDS011;20142;28.494;-16.312;2022-08-21T04:04:10;3.20;;;1.15;;
33840;SDS011;20142;28.494;-16.312;2022-08-21T04:09:12;5.85;;;1.23;;
33840;SDS011;20142;28.494;-16.312;2022-08-21T04:14:15;6.00;;;1.40;;
33840;SDS011;20142;28.494;-16.312;2022-08-21T04:19:17;4.72;;;1.20;;
33840;SDS011;20142;28.494;-16.312;2022-08-21T04:24:19;6.18;;;1.25;;
33840;SDS011;20142;28.494;-16.312;2022-08-21T04:29:21;4.40;;;1.23;;
33840;SDS011;20142;28.494;-16.312;2022-08-21T04:34:23;6.22;;;1.40;;
33840;SDS011;20142;28.494;-16.312;2022-08-21T04:39:24;5.60;;;1.13;;
33840;SDS011;20142;28.494;-16.312;2022-08-21T04:44:26;4.10;;;0.88;;
33840;SDS011;20142;28.494;-16.312;2022-08-21T04:49:28;5.88;;;1.20;;
33840;SDS011;20142;28.494;-16.312;2022-08-21T04:54:31;5.45;;;1.30;;
33840;SDS011;20142;28.494;-16.312;2022-08-21T04:59:35;5.18;;;1.00;;
33840;SDS011;20142;28.494;-16.312;2022-08-21T05:04:44;1.83;;;0.83;;
33840;SDS011;20142;28.494;-16.312;2022-08-21T05:09:49;2.15;;;0.85;;
33840;SDS011;20142;28.494;-16.312;2022-08-21T05:14:52;3.65;;;1.02;;
33840;SDS011;20142;28.494;-16.312;2022-08-21T05:19:54;4.80;;;1.05;;
33840;SDS011;20142;28.494;-16.312;2022-08-21T05:24:56;4.18;;;1.08;;
33840;SDS011;20142;28.494;-16.312;2022-08-21T05:29:58;8.35;;;0.90;;
33840;SDS011;20142;28.494;-16.312;2022-08-21T05:35:01;6.05;;;1.00;;
33840;SDS011;20142;28.494;-16.312;2022-08-21T05:40:06;3.42;;;0.90;;
33840;SDS011;20142;28.494;-16.312;2022-08-21T05:45:10;3.38;;;1.10;;
33840;SDS011;20142;28.494;-16.312;2022-08-21T05:50:12;5.75;;;0.95;;
33840;SDS011;20142;28.494;-16.312;2022-08-21T05:55:14;1.23;;;0.70;;
33840;SDS011;20142;28.494;-16.312;2022-08-21T06:00:16;3.80;;;0.93;;
33840;SDS011;20142;28.494;-16.312;2022-08-21T06:05:18;4.90;;;0.85;;
33840;SDS011;20142;28.494;-16.312;2022-08-21T06:10:20;1.60;;;0.77;;
33840;SDS011;20142;28.494;-16.312;2022-08-21T06:15:22;5.60;;;0.88;;
33840;SDS011;20142;28.494;-16.312;2022-08-21T06:20:24;7.18;;;0.98;;
33840;SDS011;20142;28.494;-16.312;2022-08-21T06:25:26;2.58;;;1.10;;
33840;SDS011;20142;28.494;-16.312;2022-08-21T06:30:28;5.38;;;1.02;;
33840;SDS011;20142;28.494;-16.312;2022-08-21T06:35:30;6.88;;;1.10;;
33840;SDS011;20142;28.494;-16.312;2022-08-21T06:40:32;3.97;;;0.90;;
33840;SDS011;20142;28.494;-16.312;2022-08-21T06:45:34;9.57;;;1.20;;
33840;SDS011;20142;28.494;-16.312;2022-08-21T06:50:36;2.15;;;0.80;;
33840;SDS011;20142;28.494;-16.312;2022-08-21T06:55:39;3.40;;;1.05;;
33840;SDS011;20142;28.494;-16.312;2022-08-21T07:00:43;7.70;;;1.50;;
33840;SDS011;20142;28.494;-16.312;2022-08-21T07:05:47;8.07;;;1.20;;
33840;SDS011;20142;28.494;-16.312;2022-08-21T07:10:49;5.68;;;1.23;;
33840;SDS011;20142;28.494;-16.312;2022-08-21T07:15:51;13.80;;;2.60;;
33840;SDS011;20142;28.494;-16.312;2022-08-21T07:20:54;35.10;;;9.93;;
33840;SDS011;20142;28.494;-16.312;2022-08-21T07:25:56;63.22;;;23.88;;
33840;SDS011;20142;28.494;-16.312;2022-08-21T07:31:00;26.30;;;7.13;;
33840;SDS011;20142;28.494;-16.312;2022-08-21T07:36:03;31.77;;;9.43;;
33840;SDS011;20142;28.494;-16.312;2022-08-21T07:41:27;27.25;;;7.95;;
33840;SDS011;20142;28.494;-16.312;2022-08-21T07:46:29;17.67;;;5.65;;
33840;SDS011;20142;28.494;-16.312;2022-08-21T07:51:31;8.57;;;2.58;;
33840;SDS011;20142;28.494;-16.312;2022-08-21T07:56:34;24.52;;;5.07;;
33840;SDS011;20142;28.494;-16.312;2022-08-21T08:01:36;20.75;;;4.65;;
33840;SDS011;20142;28.494;-16.312;2022-08-21T08:06:37;10.43;;;4.22;;
33840;SDS011;20142;28.494;-16.312;2022-08-21T08:11:40;17.33;;;4.30;;
33840;SDS011;20142;28.494;-16.312;2022-08-21T08:16:44;13.20;;;3.95;;
33840;SDS011;20142;28.494;-16.312;2022-08-21T08:21:46;17.25;;;5.28;;
33840;SDS011;20142;28.494;-16.312;2022-08-21T08:26:47;15.55;;;3.95;;
33840;SDS011;20142;28.494;-16.312;2022-08-21T08:31:49;32.58;;;11.20;;
33840;SDS011;20142;28.494;-16.312;2022-08-21T08:36:51;29.75;;;11.27;;
33840;SDS011;20142;28.494;-16.312;2022-08-21T08:42:36;27.58;;;9.45;;
33840;SDS011;20142;28.494;-16.312;2022-08-21T08:47:21;12.20;;;4.60;;
33840;SDS011;20142;28.494;-16.312;2022-08-21T08:52:29;15.23;;;3.45;;
33840;SDS011;20142;28.494;-16.312;2022-08-21T08:57:33;6.65;;;2.28;;
33840;SDS011;20142;28.494;-16.312;2022-08-21T09:02:40;16.08;;;4.32;;
33840;SDS011;20142;28.494;-16.312;2022-08-21T09:07:50;13.00;;;3.20;;
33840;SDS011;20142;28.494;-16.312;2022-08-21T09:24:08;9.15;;;2.97;;
33840;SDS011;20142;28.494;-16.312;2022-08-21T09:29:54;6.53;;;1.80;;
33840;SDS011;20142;28.494;-16.312;2022-08-21T09:35:04;9.65;;;3.33;;
33840;SDS011;20142;28.494;-16.312;2022-08-21T09:40:15;9.27;;;1.58;;
33840;SDS011;20142;28.494;-16.312;2022-08-21T09:45:31;6.35;;;2.40;;
33840;SDS011;20142;28.494;-16.312;2022-08-21T09:50:34;5.55;;;0.98;;
33840;SDS011;20142;28.494;-16.312;2022-08-21T09:55:38;16.27;;;4.50;;
33840;SDS011;20142;28.494;-16.312;2022-08-21T10:01:06;7.97;;;1.90;;
33840;SDS011;20142;28.494;-16.312;2022-08-21T10:06:22;10.13;;;1.73;;
33840;SDS011;20142;28.494;-16.312;2022-08-21T10:11:26;6.72;;;1.45;;
33840;SDS011;20142;28.494;-16.312;2022-08-21T10:16:36;5.15;;;1.40;;
33840;SDS011;20142;28.494;-16.312;2022-08-21T10:27:11;5.50;;;1.30;;
33840;SDS011;20142;28.494;-16.312;2022-08-21T10:43:08;6.72;;;1.70;;
33840;SDS011;20142;28.494;-16.312;2022-08-21T10:48:37;6.68;;;1.50;;
33840;SDS011;20142;28.494;-16.312;2022-08-21T10:53:57;7.95;;;1.73;;
33840;SDS011;20142;28.494;-16.312;2022-08-21T10:59:18;3.92;;;1.00;;
33840;SDS011;20142;28.494;-16.312;2022-08-21T11:04:49;4.22;;;0.80;;
33840;SDS011;20142;28.494;-16.312;2022-08-21T11:21:18;4.28;;;0.90;;
33840;SDS011;20142;28.494;-16.312;2022-08-21T11:37:23;4.80;;;1.20;;
33840;SDS011;20142;28.494;-16.312;2022-08-21T11:53:12;1.77;;;0.80;;
33840;SDS011;20142;28.494;-16.312;2022-08-21T11:58:38;4.53;;;1.10;;
33840;SDS011;20142;28.494;-16.312;2022-08-21T12:09:08;1.87;;;0.70;;
33840;SDS011;20142;28.494;-16.312;2022-08-21T12:14:13;2.08;;;0.50;;
33840;SDS011;20142;28.494;-16.312;2022-08-21T12:29:32;12.48;;;2.30;;
33840;SDS011;20142;28.494;-16.312;2022-08-21T12:40:03;7.93;;;1.90;;
33840;SDS011;20142;28.494;-16.312;2022-08-21T12:45:27;3.00;;;0.40;;
33840;SDS011;20142;28.494;-16.312;2022-08-21T12:50:48;3.47;;;0.50;;
33840;SDS011;20142;28.494;-16.312;2022-08-21T12:55:51;5.15;;;1.23;;
33840;SDS011;20142;28.494;-16.312;2022-08-21T13:01:04;1.33;;;0.63;;
33840;SDS011;20142;28.494;-16.312;2022-08-21T13:06:27;4.47;;;0.50;;
33840;SDS011;20142;28.494;-16.312;2022-08-21T13:11:42;5.10;;;1.08;;
33840;SDS011;20142;28.494;-16.312;2022-08-21T13:16:45;4.05;;;1.25;;
33840;SDS011;20142;28.494;-16.312;2022-08-21T13:21:48;1.38;;;0.47;;
33840;SDS011;20142;28.494;-16.312;2022-08-21T13:26:52;8.32;;;0.50;;
33840;SDS011;20142;28.494;-16.312;2022-08-21T13:31:56;1.55;;;0.55;;
33840;SDS011;20142;28.494;-16.312;2022-08-21T13:37:02;1.67;;;0.60;;
33840;SDS011;20142;28.494;-16.312;2022-08-21T13:42:10;1.58;;;0.52;;
33840;SDS011;20142;28.494;-16.312;2022-08-21T13:47:13;2.83;;;0.50;;
33840;SDS011;20142;28.494;-16.312;2022-08-21T13:52:23;2.95;;;0.55;;
33840;SDS011;20142;28.494;-16.312;2022-08-21T14:02:37;4.18;;;0.60;;
33840;SDS011;20142;28.494;-16.312;2022-08-21T14:07:40;2.33;;;0.70;;
33840;SDS011;20142;28.494;-16.312;2022-08-21T14:12:53;4.32;;;0.60;;
33840;SDS011;20142;28.494;-16.312;2022-08-21T14:18:16;3.28;;;0.80;;
33840;SDS011;20142;28.494;-16.312;2022-08-21T14:23:23;2.92;;;0.60;;
33840;SDS011;20142;28.494;-16.312;2022-08-21T14:28:41;0.93;;;0.47;;
33840;SDS011;20142;28.494;-16.312;2022-08-21T14:33:43;1.75;;;0.45;;
33840;SDS011;20142;28.494;-16.312;2022-08-21T14:38:45;3.60;;;0.50;;
33840;SDS011;20142;28.494;-16.312;2022-08-21T14:43:47;0.93;;;0.45;;
33840;SDS011;20142;28.494;-16.312;2022-08-21T14:48:50;0.93;;;0.40;;
33840;SDS011;20142;28.494;-16.312;2022-08-21T14:53:52;2.58;;;0.68;;
33840;SDS011;20142;28.494;-16.312;2022-08-21T14:58:54;1.35;;;0.45;;
33840;SDS011;20142;28.494;-16.312;2022-08-21T15:03:58;1.05;;;0.40;;
33840;SDS011;20142;28.494;-16.312;2022-08-21T15:09:00;3.95;;;1.30;;
33840;SDS011;20142;28.494;-16.312;2022-08-21T15:14:06;1.83;;;0.70;;
33840;SDS011;20142;28.494;-16.312;2022-08-21T15:19:11;5.38;;;1.55;;
33840;SDS011;20142;28.494;-16.312;2022-08-21T15:24:14;1.73;;;0.68;;
33840;SDS011;20142;28.494;-16.312;2022-08-21T15:29:16;9.05;;;1.70;;
33840;SDS011;20142;28.494;-16.312;2022-08-21T15:34:18;6.72;;;2.10;;
33840;SDS011;20142;28.494;-16.312;2022-08-21T15:39:20;4.07;;;1.45;;
33840;SDS011;20142;28.494;-16.312;2022-08-21T15:44:22;6.90;;;1.70;;
33840;SDS011;20142;28.494;-16.312;2022-08-21T15:49:26;8.95;;;2.47;;
33840;SDS011;20142;28.494;-16.312;2022-08-21T15:54:28;9.10;;;2.00;;
33840;SDS011;20142;28.494;-16.312;2022-08-21T15:59:31;8.30;;;2.58;;
33840;SDS011;20142;28.494;-16.312;2022-08-21T16:04:39;3.80;;;1.50;;
33840;SDS011;20142;28.494;-16.312;2022-08-21T16:09:42;2.78;;;1.00;;
33840;SDS011;20142;28.494;-16.312;2022-08-21T16:14:44;1.48;;;0.57;;
33840;SDS011;20142;28.494;-16.312;2022-08-21T16:19:46;7.55;;;2.10;;
33840;SDS011;20142;28.494;-16.312;2022-08-21T16:24:48;10.65;;;1.98;;
33840;SDS011;20142;28.494;-16.312;2022-08-21T16:29:50;11.05;;;2.80;;
33840;SDS011;20142;28.494;-16.312;2022-08-21T16:34:53;14.60;;;3.10;;
33840;SDS011;20142;28.494;-16.312;2022-08-21T16:39:55;15.38;;;3.38;;
33840;SDS011;20142;28.494;-16.312;2022-08-21T16:44:57;9.60;;;3.00;;
33840;SDS011;20142;28.494;-16.312;2022-08-21T16:50:00;11.27;;;3.70;;
33840;SDS011;20142;28.494;-16.312;2022-08-21T16:55:02;10.00;;;3.60;;
33840;SDS011;20142;28.494;-16.312;2022-08-21T17:00:05;9.77;;;3.47;;
33840;SDS011;20142;28.494;-16.312;2022-08-21T17:05:13;11.43;;;3.42;;
33840;SDS011;20142;28.494;-16.312;2022-08-21T17:10:15;10.35;;;3.10;;
33840;SDS011;20142;28.494;-16.312;2022-08-21T17:15:20;14.30;;;3.83;;
33840;SDS011;20142;28.494;-16.312;2022-08-21T17:20:24;9.98;;;3.20;;
33840;SDS011;20142;28.494;-16.312;2022-08-21T17:25:26;11.90;;;3.40;;
33840;SDS011;20142;28.494;-16.312;2022-08-21T17:30:28;11.30;;;3.45;;
33840;SDS011;20142;28.494;-16.312;2022-08-21T17:35:30;10.52;;;3.10;;
33840;SDS011;20142;28.494;-16.312;2022-08-21T17:40:32;12.55;;;3.97;;
33840;SDS011;20142;28.494;-16.312;2022-08-21T17:45:34;11.90;;;3.42;;
33840;SDS011;20142;28.494;-16.312;2022-08-21T17:50:37;8.55;;;3.00;;
33840;SDS011;20142;28.494;-16.312;2022-08-21T17:55:39;12.65;;;3.90;;
33840;SDS011;20142;28.494;-16.312;2022-08-21T18:00:41;14.40;;;3.03;;
33840;SDS011;20142;28.494;-16.312;2022-08-21T18:05:47;10.43;;;2.53;;
33840;SDS011;20142;28.494;-16.312;2022-08-21T18:10:51;7.63;;;2.20;;
33840;SDS011;20142;28.494;-16.312;2022-08-21T18:15:53;10.68;;;1.83;;
33840;SDS011;20142;28.494;-16.312;2022-08-21T18:20:56;8.50;;;2.70;;
33840;SDS011;20142;28.494;-16.312;2022-08-21T18:25:58;13.02;;;3.22;;
33840;SDS011;20142;28.494;-16.312;2022-08-21T18:31:00;11.88;;;3.05;;
33840;SDS011;20142;28.494;-16.312;2022-08-21T18:36:03;5.55;;;1.88;;
33840;SDS011;20142;28.494;-16.312;2022-08-21T18:41:05;12.02;;;3.30;;
33840;SDS011;20142;28.494;-16.312;2022-08-21T18:46:07;10.35;;;2.95;;
33840;SDS011;20142;28.494;-16.312;2022-08-21T18:51:09;12.32;;;3.22;;
33840;SDS011;20142;28.494;-16.312;2022-08-21T18:56:11;13.93;;;3.70;;
33840;SDS011;20142;28.494;-16.312;2022-08-21T19:01:13;8.23;;;2.20;;
33840;SDS011;20142;28.494;-16.312;2022-08-21T19:06:15;6.88;;;1.55;;
33840;SDS011;20142;28.494;-16.312;2022-08-21T19:11:18;9.68;;;2.70;;
33840;SDS011;20142;28.494;-16.312;2022-08-21T19:16:20;8.43;;;1.83;;
33840;SDS011;20142;28.494;-16.312;2022-08-21T19:21:22;6.85;;;1.42;;
33840;SDS011;20142;28.494;-16.312;2022-08-21T19:26:25;10.13;;;1.63;;
33840;SDS011;20142;28.494;-16.312;2022-08-21T19:31:29;7.82;;;1.20;;
33840;SDS011;20142;28.494;-16.312;2022-08-21T19:36:32;6.80;;;1.80;;
33840;SDS011;20142;28.494;-16.312;2022-08-21T19:41:35;8.43;;;2.72;;
33840;SDS011;20142;28.494;-16.312;2022-08-21T19:46:42;14.25;;;3.33;;
33840;SDS011;20142;28.494;-16.312;2022-08-21T19:51:45;14.38;;;2.97;;
33840;SDS011;20142;28.494;-16.312;2022-08-21T19:56:47;8.40;;;2.70;;
33840;SDS011;20142;28.494;-16.312;2022-08-21T20:01:50;16.30;;;3.50;;
33840;SDS011;20142;28.494;-16.312;2022-08-21T20:06:52;13.25;;;4.00;;
33840;SDS011;20142;28.494;-16.312;2022-08-21T20:11:55;19.30;;;3.83;;
33840;SDS011;20142;28.494;-16.312;2022-08-21T20:17:16;17.40;;;3.97;;
33840;SDS011;20142;28.494;-16.312;2022-08-21T20:22:20;16.50;;;3.80;;
33840;SDS011;20142;28.494;-16.312;2022-08-21T20:27:23;20.35;;;4.25;;
33840;SDS011;20142;28.494;-16.312;2022-08-21T20:32:25;16.58;;;4.10;;
33840;SDS011;20142;28.494;-16.312;2022-08-21T20:37:27;17.88;;;4.63;;
33840;SDS011;20142;28.494;-16.312;2022-08-21T20:42:29;16.75;;;3.88;;
33840;SDS011;20142;28.494;-16.312;2022-08-21T20:47:31;15.85;;;3.67;;
33840;SDS011;20142;28.494;-16.312;2022-08-21T20:52:34;15.82;;;3.88;;
33840;SDS011;20142;28.494;-16.312;2022-08-21T20:57:38;16.52;;;3.47;;
33840;SDS011;20142;28.494;-16.312;2022-08-21T21:07:51;17.67;;;3.90;;
33840;SDS011;20142;28.494;-16.312;2022-08-21T21:12:59;13.20;;;3.60;;
33840;SDS011;20142;28.494;-16.312;2022-08-21T21:18:07;13.27;;;3.03;;
33840;SDS011;20142;28.494;-16.312;2022-08-21T21:23:16;15.35;;;3.78;;
33840;SDS011;20142;28.494;-16.312;2022-08-21T21:33:45;17.85;;;3.25;;
33840;SDS011;20142;28.494;-16.312;2022-08-21T21:38:52;10.57;;;3.33;;
33840;SDS011;20142;28.494;-16.312;2022-08-21T21:55:05;15.07;;;3.90;;
33840;SDS011;20142;28.494;-16.312;2022-08-21T22:00:35;10.00;;;3.08;;
33840;SDS011;20142;28.494;-16.312;2022-08-21T22:10:55;6.30;;;1.88;;
33840;SDS011;20142;28.494;-16.312;2022-08-21T22:15:58;12.10;;;2.65;;
33840;SDS011;20142;28.494;-16.312;2022-08-21T22:26:06;8.23;;;2.33;;
33840;SDS011;20142;28.494;-16.312;2022-08-21T22:31:15;10.80;;;2.17;;
33840;SDS011;20142;28.494;-16.312;2022-08-21T22:36:20;5.25;;;1.88;;
33840;SDS011;20142;28.494;-16.312;2022-08-21T22:41:24;5.30;;;1.55;;
33840;SDS011;20142;28.494;-16.312;2022-08-21T22:47:04;8.02;;;1.80;;
33840;SDS011;20142;28.494;-16.312;2022-08-21T22:52:07;8.10;;;2.03;;
33840;SDS011;20142;28.494;-16.312;2022-08-21T22:57:23;5.43;;;1.80;;
33840;SDS011;20142;28.494;-16.312;2022-08-21T23:03:03;5.90;;;1.70;;
33840;SDS011;20142;28.494;-16.312;2022-08-21T23:07:59;4.88;;;1.50;;
33840;SDS011;20142;28.494;-16.312;2022-08-21T23:13:16;6.53;;;2.00;;
33840;SDS011;20142;28.494;-16.312;2022-08-21T23:23:27;5.68;;;1.73;;
33840;SDS011;20142;28.494;-16.312;2022-08-21T23:33:57;4.65;;;2.10;;
33840;SDS011;20142;28.494;-16.312;2022-08-21T23:44:24;7.72;;;2.30;;
33840;SDS011;20142;28.494;-16.312;2022-08-21T23:49:41;4.20;;;1.70;;
33840;SDS011;20142;28.494;-16.312;2022-08-21T23:55:15;4.18;;;1.98;;
